White Bluff, TN (37187)

10:49 AM CST on December 07, 2016 (GMT -0600)
White Bluff | | Change Station

Elev 823 ft 36.11 °N, 87.21 °W | Updated 5 seconds ago

Mostly Cloudy
Mostly Cloudy
40.4 °F
Feels Like 40 °F
N
1.0
Wind Variable Wind from NNE
Gusts 5.7 mph

Today
High -- | Low -- °F
--% Chance of Precip.
Yesterday
High -- | Low -- °F
Precip. -- in
Pressure 30.14 in
Visibility 10.0 miles
Clouds Mostly Cloudy 2300 ft
Windchill 40 °F
Dew Point 26 °F
Humidity 55%
Rainfall 0.00 in
Snow Depth Not available.
6:46 AM 4:34 PM
First Quarter, 54% visible
METAR KMRC 071635Z AUTO 04007KT 10SM BKN023 05/03 A3014 RMK
Pressure 30.14 in
Visibility 10.0 miles
Clouds Mostly Cloudy 2300 ft
Windchill 40 °F
Dew Point 26 °F
Humidity 55%
Rainfall 0.00 in
Snow Depth Not available.
6:46 AM 4:34 PM
First Quarter, 54% visible
METAR KMRC 071635Z AUTO 04007KT 10SM BKN023 05/03 A3014 RMK

10-Day Weather Forecast

Almanac

Astronomy

Dec. 07, 2016 Rise Set
Actual Time
Civil Twilight
Nautical Twilight
Astronomical Twilight
Moon
Length of Visible Light
Length of Day
Tomorrow will be .
, % of the Moon is Illuminated

Today's Extremes

State Highs State Lows

Community

WunderPhotos

Upload Photos

1,956,132 photos uploaded!

WunderBlog® & News

Nearby

Air Quality

  Air Quality AQ Index Pollutant
Not available.

Snow Depth

Station Depth Elevation

Earthquake Activity

City Distance Mag. Time & Date
Minimum magnitude displayed is 2.5.

Coastal Water Temperatures

Place Temperature

Stations

Nearby Weather Stations

Station Location Temp. Windchill Dew Point Humidity Wind Precip. Elev Updated Type
                   

Watches & Warnings

There are currently no watches in effect.